createdAt,value
2018-09-25T00:02:28.341Z,73.99
2018-09-25T00:05:02.224Z,74.27
2018-09-25T00:07:36.132Z,75.56
2018-09-25T00:10:09.973Z,75.60
2018-09-25T00:12:43.761Z,75.70
2018-09-25T00:15:17.468Z,75.89
2018-09-25T00:17:51.267Z,76.09
2018-09-25T00:20:25.090Z,75.77
2018-09-25T00:22:59.031Z,77.08
2018-09-25T00:25:32.993Z,77.29
2018-09-25T00:28:06.617Z,78.30
2018-09-25T00:30:40.425Z,79.03
2018-09-25T00:33:14.348Z,78.91
2018-09-25T00:35:48.067Z,79.08
2018-09-25T00:38:21.980Z,78.82
2018-09-25T00:40:55.724Z,78.61
2018-09-25T00:43:29.377Z,78.18
2018-09-25T00:46:03.248Z,79.20
2018-09-25T00:48:37.105Z,79.60
2018-09-25T00:51:10.932Z,79.21
2018-09-25T00:53:44.798Z,79.60
2018-09-25T00:56:18.577Z,80.16
2018-09-25T00:58:52.512Z,80.01
2018-09-25T01:01:26.404Z,79.50
2018-09-25T01:04:00.133Z,79.87
2018-09-25T01:06:34.089Z,80.19
2018-09-25T01:09:08.040Z,80.06
2018-09-25T01:11:41.616Z,79.39
2018-09-25T01:14:15.574Z,79.27
2018-09-25T01:16:49.536Z,79.33
2018-09-25T01:19:23.449Z,79.62
2018-09-25T01:21:57.200Z,80.32
2018-09-25T01:24:31.088Z,79.88
2018-09-25T01:27:04.828Z,79.87
2018-09-25T01:29:38.676Z,80.43
2018-09-25T01:32:12.589Z,80.58
2018-09-25T01:34:46.362Z,80.02
2018-09-25T01:37:20.077Z,80.10
2018-09-25T01:39:54.016Z,80.22
2018-09-25T01:42:27.883Z,80.28
2018-09-25T01:45:01.753Z,80.78
2018-09-25T01:47:35.625Z,80.44
2018-09-25T01:50:09.533Z,80.49
2018-09-25T01:52:43.274Z,79.85
2018-09-25T01:55:17.119Z,80.38
2018-09-25T01:57:50.933Z,81.46
2018-09-25T02:00:24.797Z,81.17
2018-09-25T02:02:58.474Z,81.43
2018-09-25T02:05:32.300Z,81.68
2018-09-25T02:08:06.079Z,82.26
2018-09-25T02:10:39.795Z,81.91
2018-09-25T02:13:13.686Z,82.61
2018-09-25T02:15:47.580Z,83.36
2018-09-25T02:18:21.216Z,84.02
2018-09-25T02:20:55.128Z,83.39
2018-09-25T02:23:28.929Z,83.99
2018-09-25T02:26:02.608Z,84.33
2018-09-25T02:28:36.255Z,84.01
2018-09-25T02:31:09.984Z,82.84
2018-09-25T02:33:43.823Z,82.95
2018-09-25T02:36:17.638Z,82.57
2018-09-25T02:38:51.404Z,82.44
2018-09-25T02:41:25.224Z,82.43
2018-09-25T02:43:59.066Z,82.60
2018-09-25T02:46:32.917Z,82.64
2018-09-25T02:49:06.631Z,82.74
2018-09-25T02:51:40.399Z,82.95
2018-09-25T02:54:14.181Z,83.03
2018-09-25T02:56:47.858Z,83.08
2018-09-25T02:59:21.730Z,83.87
2018-09-25T03:01:55.640Z,84.00
2018-09-25T03:04:29.468Z,82.97
2018-09-25T03:07:03.228Z,82.44
2018-09-25T03:09:37.056Z,81.61
2018-09-25T03:12:10.973Z,82.04
2018-09-25T03:14:44.826Z,81.70
2018-09-25T03:17:18.548Z,82.50
2018-09-25T03:19:52.397Z,82.96
2018-09-25T03:22:26.274Z,82.63
2018-09-25T03:25:00.017Z,82.10
2018-09-25T03:27:33.881Z,82.55
2018-09-25T03:30:07.757Z,82.00
2018-09-25T03:32:41.664Z,82.38
2018-09-25T03:35:15.457Z,81.72
2018-09-25T03:37:49.334Z,81.19
2018-09-25T03:40:23.196Z,81.02
2018-09-25T03:42:56.996Z,81.96
2018-09-25T03:45:30.703Z,82.21
2018-09-25T03:48:04.326Z,82.05
2018-09-25T03:50:38.007Z,82.17
2018-09-25T03:53:11.820Z,82.19
2018-09-25T03:55:45.665Z,82.26
2018-09-25T03:58:19.554Z,82.79
2018-09-25T04:00:53.441Z,82.59
2018-09-25T04:03:27.280Z,82.31
2018-09-25T04:06:01.315Z,82.38
2018-09-25T04:08:35.161Z,83.83
2018-09-25T04:11:09.041Z,83.19
2018-09-25T04:13:42.849Z,83.55
2018-09-25T04:16:16.728Z,83.01
2018-09-25T04:18:50.531Z,83.25
2018-09-25T04:21:24.266Z,82.57
2018-09-25T04:23:58.112Z,82.55
2018-09-25T04:26:32.032Z,83.67
2018-09-25T04:29:05.969Z,83.68
2018-09-25T04:31:39.865Z,84.16
2018-09-25T04:34:13.697Z,84.95
2018-09-25T04:36:47.321Z,85.73
2018-09-25T04:39:21.100Z,84.93
2018-09-25T04:41:55.003Z,84.42
2018-09-25T04:44:28.753Z,85.06
2018-09-25T04:47:02.663Z,85.04
2018-09-25T04:49:36.685Z,85.36
2018-09-25T04:52:10.404Z,85.43
2018-09-25T04:54:44.218Z,85.83
2018-09-25T04:57:18.158Z,85.64
2018-09-25T04:59:51.906Z,85.23
2018-09-25T05:02:25.849Z,85.34
2018-09-25T05:04:59.645Z,85.87
2018-09-25T05:07:33.497Z,85.53
2018-09-25T05:10:07.467Z,85.70
2018-09-25T05:12:41.345Z,86.15
2018-09-25T05:15:15.204Z,85.16
2018-09-25T05:17:48.992Z,85.09
2018-09-25T05:20:22.768Z,84.15
2018-09-25T05:22:56.676Z,84.07
2018-09-25T05:25:31.502Z,83.92
2018-09-25T05:28:05.379Z,84.70
2018-09-25T05:30:39.132Z,84.66
2018-09-25T05:33:12.845Z,84.06
2018-09-25T05:35:46.662Z,83.94
2018-09-25T05:38:20.473Z,83.48
2018-09-25T05:40:54.315Z,83.72
2018-09-25T05:43:28.013Z,83.38
2018-09-25T05:46:01.937Z,82.78
2018-09-25T05:48:35.896Z,82.85
2018-09-25T05:51:09.559Z,82.20
2018-09-25T05:53:43.333Z,82.60
2018-09-25T05:56:17.280Z,82.10
2018-09-25T05:58:51.177Z,82.30
2018-09-25T06:01:24.985Z,82.15
2018-09-25T06:03:58.806Z,82.03
2018-09-25T06:06:32.697Z,81.38
2018-09-25T06:09:06.556Z,81.16
2018-09-25T06:11:40.337Z,80.80
2018-09-25T06:14:14.122Z,80.20
2018-09-25T06:16:47.918Z,79.49
2018-09-25T06:19:21.801Z,79.31
2018-09-25T06:21:55.660Z,78.64
2018-09-25T06:24:29.447Z,77.83
2018-09-25T06:27:03.209Z,75.94
2018-09-25T06:29:37.091Z,72.50
2018-09-25T06:32:11.147Z,67.74
2018-09-25T06:34:44.963Z,60.61
2018-09-25T06:37:18.962Z,53.63
2018-09-25T06:39:52.820Z,48.73
2018-09-25T06:42:27.187Z,43.23
2018-09-25T06:45:01.179Z,43.02
2018-09-25T06:47:34.959Z,43.20
2018-09-25T06:50:09.237Z,43.06
2018-09-25T06:52:43.084Z,41.39
2018-09-25T06:55:16.940Z,36.68
2018-09-25T06:57:51.451Z,33.56
2018-09-25T07:00:25.684Z,30.38
2018-09-25T07:02:59.582Z,28.84
2018-09-25T07:05:33.717Z,24.52
2018-09-25T07:08:07.436Z,22.47
2018-09-25T07:10:41.427Z,19.75
2018-09-25T07:13:15.501Z,19.15
2018-09-25T07:15:50.193Z,18.59
2018-09-25T07:18:24.158Z,16.52
2018-09-25T07:20:57.926Z,16.32
2018-09-25T07:23:33.505Z,15.97
2018-09-25T07:26:07.324Z,15.85
2018-09-25T07:28:41.262Z,16.17
2018-09-25T07:31:15.620Z,16.65
2018-09-25T07:33:49.492Z,17.72
2018-09-25T07:36:24.526Z,16.73
2018-09-25T07:38:58.394Z,16.47
2018-09-25T07:41:32.389Z,15.88
2018-09-25T07:44:06.222Z,18.24
2018-09-25T07:46:40.140Z,21.34
2018-09-25T07:49:14.048Z,26.95
2018-09-25T07:51:48.789Z,33.30
2018-09-25T07:54:22.600Z,37.39
2018-09-25T07:56:57.081Z,42.20
2018-09-25T07:59:30.959Z,44.80
2018-09-25T08:02:06.261Z,43.41
2018-09-25T08:04:40.462Z,36.98
2018-09-25T08:07:14.250Z,31.67
2018-09-25T08:09:48.185Z,26.85
2018-09-25T08:12:22.113Z,26.11
2018-09-25T08:14:56.118Z,22.75
2018-09-25T08:17:29.931Z,23.15
2018-09-25T08:20:04.082Z,18.41
2018-09-25T08:22:37.870Z,17.10
2018-09-25T08:25:11.613Z,14.21
2018-09-25T08:27:45.464Z,13.67
2018-09-25T08:30:19.275Z,12.68
2018-09-25T08:32:53.112Z,12.03
2018-09-25T08:35:26.844Z,11.10
2018-09-25T08:38:00.738Z,10.83
2018-09-25T08:40:34.529Z,11.81
2018-09-25T08:43:08.456Z,10.65
2018-09-25T08:45:42.385Z,9.90
2018-09-25T08:48:16.212Z,9.63
2018-09-25T08:50:49.985Z,9.32
2018-09-25T08:53:23.961Z,9.60
2018-09-25T08:55:57.825Z,9.96
2018-09-25T08:58:31.581Z,10.07
2018-09-25T09:01:05.390Z,9.75
2018-09-25T09:03:39.314Z,9.38
2018-09-25T09:06:13.272Z,9.10
2018-09-25T09:08:54.268Z,9.71
2018-09-25T09:11:28.086Z,9.00
2018-09-25T09:14:01.931Z,8.59
2018-09-25T09:16:35.941Z,8.88
2018-09-25T09:19:09.776Z,8.17
2018-09-25T09:21:43.585Z,7.53
2018-09-25T09:24:17.474Z,7.55
2018-09-25T09:26:51.384Z,7.59
2018-09-25T09:29:25.282Z,9.03
2018-09-25T09:31:59.685Z,8.75
2018-09-25T09:34:33.512Z,9.37
2018-09-25T09:37:07.324Z,8.33
2018-09-25T09:39:41.156Z,8.23
2018-09-25T09:42:15.057Z,9.56
2018-09-25T09:44:48.782Z,12.20
2018-09-25T09:47:22.689Z,11.55
2018-09-25T09:49:56.399Z,10.14
2018-09-25T09:52:30.177Z,10.00
2018-09-25T09:55:04.008Z,8.96
2018-09-25T09:57:37.792Z,9.19
2018-09-25T10:00:11.560Z,8.89
2018-09-25T10:02:45.398Z,9.14
2018-09-25T10:05:19.184Z,8.36
2018-09-25T10:07:52.993Z,8.15
2018-09-25T10:10:26.770Z,8.52
2018-09-25T10:13:00.749Z,8.68
2018-09-25T10:15:34.534Z,8.73
2018-09-25T10:18:08.437Z,9.48
2018-09-25T10:20:42.313Z,9.80
2018-09-25T10:23:15.973Z,10.23
2018-09-25T10:25:49.710Z,12.05
2018-09-25T10:28:23.648Z,13.25
2018-09-25T10:30:57.499Z,15.62
2018-09-25T10:33:31.267Z,19.81
2018-09-25T10:36:04.976Z,19.72
2018-09-25T10:38:38.732Z,17.86
2018-09-25T10:41:12.577Z,15.99
2018-09-25T10:43:46.388Z,14.89
2018-09-25T10:46:20.077Z,16.89
2018-09-25T10:48:53.926Z,17.31
2018-09-25T10:51:27.669Z,15.70
2018-09-25T10:54:01.561Z,14.24
2018-09-25T10:56:35.366Z,13.87
2018-09-25T10:59:09.442Z,14.01
2018-09-25T11:01:43.293Z,13.00
2018-09-25T11:04:17.233Z,14.09
2018-09-25T11:06:51.024Z,14.57
2018-09-25T11:09:24.867Z,17.31
2018-09-25T11:11:58.556Z,19.13
2018-09-25T11:14:32.385Z,18.92
2018-09-25T11:17:06.117Z,17.16
2018-09-25T11:19:39.908Z,17.36
2018-09-25T11:22:13.684Z,18.30
2018-09-25T11:24:47.584Z,19.65
2018-09-25T11:27:21.441Z,19.14
2018-09-25T11:29:55.344Z,17.72
2018-09-25T11:32:29.199Z,16.22
2018-09-25T11:35:03.167Z,14.70
2018-09-25T11:37:36.940Z,13.97
2018-09-25T11:40:10.688Z,14.78
2018-09-25T11:42:44.424Z,14.86
2018-09-25T11:45:18.259Z,14.61
2018-09-25T11:47:51.941Z,14.33
2018-09-25T11:50:25.841Z,15.33
2018-09-25T11:52:59.700Z,15.41
2018-09-25T11:55:33.425Z,17.58
2018-09-25T11:58:07.231Z,18.56
2018-09-25T12:00:41.036Z,20.05
2018-09-25T12:03:14.898Z,20.93
2018-09-25T12:05:48.647Z,21.64
2018-09-25T12:08:22.364Z,22.52
2018-09-25T12:10:56.234Z,22.17
2018-09-25T12:13:30.114Z,21.98
2018-09-25T12:16:03.968Z,21.75
2018-09-25T12:18:38.804Z,20.74
2018-09-25T12:21:12.876Z,20.78
2018-09-25T12:23:46.740Z,21.44
2018-09-25T12:26:20.514Z,20.06
2018-09-25T12:28:54.274Z,19.57
2018-09-25T12:31:28.107Z,20.82
2018-09-25T12:34:01.994Z,19.65
2018-09-25T12:36:35.719Z,20.04
2018-09-25T12:39:11.733Z,21.54
2018-09-25T12:41:45.567Z,22.86
2018-09-25T12:44:19.280Z,23.35
2018-09-25T12:46:53.108Z,24.56
2018-09-25T12:49:26.990Z,24.11
2018-09-25T12:52:00.689Z,24.78
2018-09-25T12:54:34.444Z,25.55
2018-09-25T12:57:08.449Z,26.02
2018-09-25T12:59:42.461Z,27.55
2018-09-25T13:02:16.517Z,28.58
2018-09-25T13:04:50.281Z,27.71
2018-09-25T13:07:24.730Z,25.84
2018-09-25T13:09:58.584Z,24.11
2018-09-25T13:12:32.393Z,23.02
2018-09-25T13:15:06.406Z,23.45
2018-09-25T13:17:40.341Z,24.83
2018-09-25T13:20:14.227Z,26.01
2018-09-25T13:22:49.521Z,25.51
2018-09-25T13:25:23.660Z,26.09
2018-09-25T13:27:57.716Z,26.47
2018-09-25T13:30:32.217Z,26.87
2018-09-25T13:33:06.233Z,24.63
2018-09-25T13:35:40.069Z,23.42
2018-09-25T13:38:13.877Z,21.91
2018-09-25T13:40:47.596Z,21.37
2018-09-25T13:43:21.376Z,20.23
2018-09-25T13:45:55.255Z,19.63
2018-09-25T13:48:29.206Z,17.85
2018-09-25T13:51:02.968Z,17.41
2018-09-25T13:53:36.742Z,19.91
2018-09-25T13:56:10.770Z,22.50
2018-09-25T13:58:44.662Z,23.35
2018-09-25T14:01:18.512Z,22.61
2018-09-25T14:03:52.410Z,20.34
2018-09-25T14:06:26.282Z,21.47
2018-09-25T14:09:00.067Z,21.00
2018-09-25T14:11:33.888Z,21.40
2018-09-25T14:14:07.622Z,20.25
2018-09-25T14:16:41.298Z,19.37
2018-09-25T14:19:14.965Z,19.59
2018-09-25T14:21:48.909Z,18.51
2018-09-25T14:24:22.652Z,18.48
2018-09-25T14:26:56.606Z,18.31
2018-09-25T14:29:30.586Z,18.54
2018-09-25T14:32:04.337Z,18.39
2018-09-25T14:34:38.234Z,18.78
2018-09-25T14:37:12.158Z,20.39
2018-09-25T14:39:45.992Z,22.11
2018-09-25T14:42:19.906Z,23.50
2018-09-25T14:44:53.633Z,24.57
2018-09-25T14:47:27.586Z,26.58
2018-09-25T14:50:01.217Z,26.65
2018-09-25T14:52:35.045Z,27.30
2018-09-25T14:55:08.750Z,29.32
2018-09-25T14:57:42.532Z,27.46
2018-09-25T15:00:15.845Z,26.85
2018-09-25T15:02:49.589Z,29.03
2018-09-25T15:05:23.429Z,26.73
2018-09-25T15:07:57.322Z,25.44
2018-09-25T15:10:31.149Z,24.88
2018-09-25T15:13:05.127Z,23.63
2018-09-25T15:15:38.875Z,22.56
2018-09-25T15:18:12.802Z,22.56
2018-09-25T15:20:46.518Z,22.34
2018-09-25T15:23:20.262Z,21.73
2018-09-25T15:25:54.225Z,22.31
2018-09-25T15:28:27.977Z,22.79
2018-09-25T15:31:01.784Z,24.74
2018-09-25T15:33:35.552Z,25.37
2018-09-25T15:36:09.450Z,24.20
2018-09-25T15:38:43.229Z,22.92
2018-09-25T15:41:17.151Z,22.63
2018-09-25T15:43:50.948Z,23.03
2018-09-25T15:46:24.610Z,21.59
2018-09-25T15:48:58.979Z,21.11
2018-09-25T15:51:32.759Z,21.36
2018-09-25T15:54:08.054Z,21.98
2018-09-25T15:56:42.724Z,21.59
2018-09-25T15:59:16.553Z,21.23
2018-09-25T16:01:50.525Z,22.49
2018-09-25T16:04:24.414Z,22.95
2018-09-25T16:06:58.336Z,23.39
2018-09-25T16:09:32.291Z,24.21
2018-09-25T16:12:06.149Z,25.60
2018-09-25T16:14:40.251Z,26.69
2018-09-25T16:17:14.501Z,28.12
2018-09-25T16:19:48.566Z,27.96
2018-09-25T16:22:22.463Z,27.96
2018-09-25T16:24:56.585Z,27.34
2018-09-25T16:27:30.591Z,27.32
2018-09-25T16:30:04.737Z,27.85
2018-09-25T16:32:39.699Z,27.30
2018-09-25T16:35:13.480Z,28.39
2018-09-25T16:37:48.312Z,28.51
2018-09-25T16:40:22.212Z,29.57
2018-09-25T16:42:55.951Z,31.14
2018-09-25T16:45:29.743Z,31.45
2018-09-25T16:48:03.505Z,32.11
2018-09-25T16:50:37.249Z,33.24
2018-09-25T16:53:10.949Z,34.10
2018-09-25T16:55:44.876Z,35.21
2018-09-25T16:58:18.724Z,35.89
2018-09-25T17:00:52.604Z,36.17
2018-09-25T17:03:26.422Z,36.23
2018-09-25T17:06:00.436Z,36.32
2018-09-25T17:08:34.305Z,37.18
2018-09-25T17:11:08.102Z,37.82
2018-09-25T17:13:41.781Z,38.47
2018-09-25T17:16:15.515Z,39.21
2018-09-25T17:18:49.278Z,39.75
2018-09-25T17:21:23.022Z,42.06
2018-09-25T17:23:56.830Z,44.15
2018-09-25T17:26:30.580Z,43.88
2018-09-25T17:29:04.493Z,45.01
2018-09-25T17:31:38.270Z,45.33
2018-09-25T17:34:12.249Z,46.71
2018-09-25T17:36:46.049Z,47.35
2018-09-25T17:39:19.941Z,47.41
2018-09-25T17:41:53.886Z,47.71
2018-09-25T17:44:27.774Z,47.67
2018-09-25T17:47:01.446Z,48.35
2018-09-25T17:49:35.127Z,48.91
2018-09-25T17:52:08.984Z,48.39
2018-09-25T17:54:42.888Z,49.03
2018-09-25T17:57:16.688Z,49.40
2018-09-25T17:59:50.517Z,49.60
2018-09-25T18:02:24.313Z,50.09
2018-09-25T18:05:00.602Z,50.78
2018-09-25T18:07:34.381Z,51.10
2018-09-25T18:10:08.121Z,51.65
2018-09-25T18:12:42.018Z,52.52
2018-09-25T18:15:15.857Z,53.43
2018-09-25T18:17:49.525Z,53.75
2018-09-25T18:20:23.336Z,54.00
2018-09-25T18:22:57.160Z,54.04
2018-09-25T18:25:30.805Z,54.16
2018-09-25T18:28:04.744Z,54.67
2018-09-25T18:30:38.552Z,54.63
2018-09-25T18:33:12.453Z,55.02
2018-09-25T18:35:46.093Z,55.48
2018-09-25T18:38:19.848Z,55.24
2018-09-25T18:40:53.601Z,56.76
2018-09-25T18:43:27.508Z,56.70
2018-09-25T18:46:01.211Z,56.67
2018-09-25T18:48:34.959Z,57.49
2018-09-25T18:51:08.626Z,57.48
2018-09-25T18:53:42.281Z,57.92
2018-09-25T18:56:16.181Z,58.42
2018-09-25T18:58:49.908Z,58.52
2018-09-25T19:01:23.692Z,58.38
2018-09-25T19:03:57.474Z,59.15
2018-09-25T19:06:31.272Z,59.38
2018-09-25T19:09:05.056Z,59.66
2018-09-25T19:11:38.908Z,59.15
2018-09-25T19:14:12.824Z,59.26
2018-09-25T19:16:46.670Z,58.97
2018-09-25T19:19:20.561Z,58.75
2018-09-25T19:21:54.437Z,59.02
2018-09-25T19:24:28.369Z,59.57
2018-09-25T19:27:02.763Z,59.79
2018-09-25T19:29:36.676Z,59.53
2018-09-25T19:32:10.374Z,59.77
2018-09-25T19:34:44.174Z,60.00
2018-09-25T19:37:17.989Z,60.24
2018-09-25T19:39:51.905Z,59.95
2018-09-25T19:42:25.596Z,60.46
2018-09-25T19:44:59.533Z,60.27
2018-09-25T19:47:33.328Z,60.91
2018-09-25T19:50:07.097Z,60.74
2018-09-25T19:52:40.904Z,60.62
2018-09-25T19:55:14.631Z,61.19
2018-09-25T19:57:48.300Z,60.97
2018-09-25T20:00:22.141Z,61.28
2018-09-25T20:02:55.977Z,62.47
2018-09-25T20:05:29.744Z,62.70
2018-09-25T20:08:03.416Z,62.41
2018-09-25T20:10:37.204Z,62.85
2018-09-25T20:13:11.185Z,63.25
2018-09-25T20:15:45.096Z,64.38
2018-09-25T20:18:18.978Z,64.30
2018-09-25T20:20:52.682Z,64.92
2018-09-25T20:23:26.666Z,65.24
2018-09-25T20:26:00.512Z,65.63
2018-09-25T20:28:34.175Z,65.80
2018-09-25T20:31:07.826Z,66.51
2018-09-25T20:33:41.642Z,66.20
2018-09-25T20:36:15.584Z,67.29
2018-09-25T20:38:49.516Z,66.94
2018-09-25T20:41:23.370Z,66.36
2018-09-25T20:43:57.053Z,66.11
2018-09-25T20:46:30.828Z,66.14
2018-09-25T20:49:04.730Z,66.00
2018-09-25T20:51:38.684Z,66.09
2018-09-25T20:54:12.516Z,65.96
2018-09-25T20:56:46.193Z,66.00
2018-09-25T20:59:19.926Z,65.06
2018-09-25T21:01:53.820Z,65.15
2018-09-25T21:04:27.433Z,65.25
2018-09-25T21:07:01.192Z,65.17
2018-09-25T21:09:35.068Z,66.74
2018-09-25T21:12:08.829Z,66.90
2018-09-25T21:14:42.639Z,66.89
2018-09-25T21:17:16.433Z,67.65
2018-09-25T21:19:50.167Z,66.88
2018-09-25T21:22:23.844Z,66.75
2018-09-25T21:24:57.624Z,67.10
2018-09-25T21:27:31.498Z,66.93
2018-09-25T21:30:05.189Z,66.67
2018-09-25T21:32:39.008Z,66.23
2018-09-25T21:35:12.972Z,66.48
2018-09-25T21:37:46.783Z,66.41
2018-09-25T21:40:20.533Z,66.57
2018-09-25T21:42:54.476Z,65.87
2018-09-25T21:45:28.391Z,65.55
2018-09-25T21:48:02.212Z,66.74
2018-09-25T21:50:36.109Z,66.93
2018-09-25T21:53:09.945Z,66.48
2018-09-25T21:55:43.632Z,67.19
2018-09-25T21:58:17.328Z,70.65
2018-09-25T22:00:51.076Z,70.57
2018-09-25T22:03:24.764Z,70.82
2018-09-25T22:05:58.708Z,71.33
2018-09-25T22:08:32.679Z,70.99
2018-09-25T22:11:06.496Z,71.10
2018-09-25T22:13:40.534Z,70.80
2018-09-25T22:16:14.121Z,71.22
2018-09-25T22:18:47.883Z,70.52
2018-09-25T22:21:21.810Z,71.21
2018-09-25T22:23:55.804Z,71.66
2018-09-25T22:26:29.697Z,71.82
2018-09-25T22:29:03.507Z,71.24
2018-09-25T22:31:37.251Z,71.33
2018-09-25T22:34:11.193Z,72.09
2018-09-25T22:36:44.956Z,71.53
2018-09-25T22:39:18.910Z,72.05
2018-09-25T22:41:52.721Z,72.34
2018-09-25T22:44:26.640Z,72.84
2018-09-25T22:47:00.558Z,73.32
2018-09-25T22:49:34.421Z,73.10
2018-09-25T22:52:08.225Z,73.16
2018-09-25T22:54:41.994Z,73.43
2018-09-25T22:57:15.644Z,73.56
2018-09-25T22:59:49.435Z,73.57
2018-09-25T23:02:23.393Z,74.26
2018-09-25T23:04:57.181Z,74.04
2018-09-25T23:07:31.080Z,74.45
2018-09-25T23:10:04.785Z,74.45
2018-09-25T23:12:38.500Z,74.67
2018-09-25T23:15:12.574Z,74.46
2018-09-25T23:17:46.447Z,74.24
2018-09-25T23:20:20.490Z,75.08
2018-09-25T23:22:54.478Z,74.32
2018-09-25T23:25:28.297Z,74.78
2018-09-25T23:28:02.192Z,74.92
2018-09-25T23:30:36.135Z,74.91
2018-09-25T23:33:09.990Z,73.84
2018-09-25T23:35:43.858Z,73.46
2018-09-25T23:38:17.884Z,73.74
2018-09-25T23:40:52.572Z,73.68
2018-09-25T23:43:28.313Z,73.79
2018-09-25T23:46:02.881Z,73.95
2018-09-25T23:48:39.565Z,73.98
2018-09-25T23:51:16.408Z,74.55
2018-09-25T23:53:51.943Z,74.51
2018-09-25T23:56:30.499Z,75.15
2018-09-25T23:59:02.773Z,74.67
